Time;durP1;ratioP1;P1;durP2;ratioP2;P2;SDS_P1;SDS_P2;PMS_P1;PMS_P2;Temp;Humidity;BMP_temperature;BMP_pressure;BME280_temperature;BME280_humidity;BME280_pressure;Samples;Min_cycle;Max_cycle;Signal;HPM_P1;HPM_P2
2022/08/16 00:00:09;;;;;;;;;;;;;;;;;;5070251;28;1083;-73
2022/08/16 00:02:35;;;;;;;;;;;;;;;;;;5070143;28;703;-73
2022/08/16 00:05:02;;;;;;;;;;;;;;;;;;5070920;28;1350;-73
2022/08/16 00:07:29;;;;;;;;;;;;;;;;;;5070744;28;1914;-72
2022/08/16 00:09:56;;;;;;;;;;;;;;;;;;5070870;28;985;-72
2022/08/16 00:12:22;;;;;;;;;;;;;;;;;;5070809;28;1063;-72
2022/08/16 00:14:48;;;;;;;;;;;;;;;;;;5052602;28;2385;-72
2022/08/16 00:17:14;;;;;;;;;;;;;;;;;;5070519;28;834;-72
2022/08/16 00:19:41;;;;;;;;;;;;;;;;;;5070159;28;1158;-72
2022/08/16 00:22:07;;;;;;;;;;;;;;;;;;5070289;28;842;-72
2022/08/16 00:24:34;;;;;;;;;;;;;;;;;;5070475;28;1315;-72
2022/08/16 00:27:01;;;;;;;;;;;;;;;;;;5070488;28;1028;-72
2022/08/16 00:29:27;;;;;;;;;;;;;;;;;;5055153;28;1975;-72
2022/08/16 00:31:53;;;;;;;;;;;;;;;;;;5070174;28;805;-72
2022/08/16 00:34:21;;;;;;;;;;;;;;;;;;5052752;28;1404;-72
2022/08/16 00:36:47;;;;;;;;;;;;;;;;;;5052571;28;1128;-72
2022/08/16 00:39:14;;;;;;;;;;;;;;;;;;5070491;28;763;-72
2022/08/16 00:41:42;;;;;;;;;;;;;;;;;;5051871;28;1443;-72
2022/08/16 00:44:10;;;;;;;;;;;;;;;;;;5070532;28;1381;-72
2022/08/16 00:46:37;;;;;;;;;;;;;;;;;;5052822;28;1221;-72
2022/08/16 00:49:04;;;;;;;;;;;;;;;;;;5070395;28;1914;-72
2022/08/16 00:51:30;;;;;;;;;;;;;;;;;;5052054;28;974;-72
2022/08/16 00:53:57;;;;;;;;;;;;;;;;;;5051958;28;1314;-72
2022/08/16 00:56:24;;;;;;;;;;;;;;;;;;5052385;28;1128;-72
2022/08/16 00:58:52;;;;;;;;;;;;;;;;;;5052213;28;1218;-72
2022/08/16 01:01:18;;;;;;;;;;;;;;;;;;5052105;28;1217;-72
2022/08/16 01:03:45;;;;;;;;;;;;;;;;;;5052286;28;1345;-72
2022/08/16 01:06:11;;;;;;;;;;;;;;;;;;5052317;28;1364;-72
2022/08/16 01:08:37;;;;;;;;;;;;;;;;;;5070016;28;1922;-72
2022/08/16 01:11:04;;;;;;;;;;;;;;;;;;5072625;28;960;-72
2022/08/16 01:13:32;;;;;;;;;;;;;;;;;;5055391;28;1518;-71
2022/08/16 01:16:00;;;;;;;;;;;;;;;;;;5055617;28;1040;-72
2022/08/16 01:18:28;;;;;;;;;;;;;;;;;;5055954;28;1112;-72
2022/08/16 01:20:55;;;;;;;;;;;;;;;;;;5055800;28;1381;-72
2022/08/16 01:23:22;;;;;;;;;;;;;;;;;;5055554;28;1384;-72
2022/08/16 01:25:51;;;;;;;;;;;;;;;;;;5055641;28;1576;-72
2022/08/16 01:28:17;;;;;;;;;;;;;;;;;;5055718;28;1926;-72
2022/08/16 01:30:46;;;;;;;;;;;;;;;;;;5055595;28;1187;-72
2022/08/16 01:33:12;;;;;;;;;;;;;;;;;;5072962;28;1063;-71
2022/08/16 01:35:40;;;;;;;;;;;;;;;;;;5055331;28;1491;-72
2022/08/16 01:38:15;;;;;;;;;;;;;;;;;;5055876;28;1339;-72
2022/08/16 01:40:42;;;;;;;;;;;;;;;;;;5055650;28;1417;-72
2022/08/16 01:43:09;;;;;;;;;;;;;;;;;;5055329;28;1207;-72
2022/08/16 01:45:36;;;;;;;;;;;;;;;;;;5055152;28;1313;-71
2022/08/16 01:48:03;;;;;;;;;;;;;;;;;;5055337;28;1922;-71
2022/08/16 01:50:29;;;;;;;;;;;;;;;;;;5055463;28;1255;-72
2022/08/16 01:52:55;;;;;;;;;;;;;;;;;;5054740;28;1272;-72
2022/08/16 01:55:32;;;;;;;;;;;;;;;;;;5055001;28;1409;-72
2022/08/16 01:57:58;;;;;;;;;;;;;;;;;;5055300;28;1361;-72
2022/08/16 02:00:27;;;;;;;;;;;;;;;;;;5055225;28;1235;-72
2022/08/16 02:02:53;;;;;;;;;;;;;;;;;;5054759;28;925;-71
2022/08/16 02:05:20;;;;;;;;;;;;;;;;;;5072869;28;1326;-72
2022/08/16 02:07:46;;;;;;;;;;;;;;;;;;5072881;28;1965;-72
2022/08/16 02:10:16;;;;;;;;;;;;;;;;;;5055045;28;1448;-72
2022/08/16 02:12:43;;;;;;;;;;;;;;;;;;5054091;28;1447;-72
2022/08/16 02:15:10;;;;;;;;;;;;;;;;;;5054598;28;1320;-72
2022/08/16 02:17:38;;;;;;;;;;;;;;;;;;5054647;28;1321;-72
2022/08/16 02:20:06;;;;;;;;;;;;;;;;;;5073097;28;842;-71
2022/08/16 02:22:32;;;;;;;;;;;;;;;;;;5056665;28;1476;-71
2022/08/16 02:24:59;;;;;;;;;;;;;;;;;;5054533;28;1496;-72
2022/08/16 02:27:25;;;;;;;;;;;;;;;;;;5054817;28;1246;-72
2022/08/16 02:29:51;;;;;;;;;;;;;;;;;;5054070;28;1918;-71
2022/08/16 02:32:17;;;;;;;;;;;;;;;;;;5054278;28;1417;-72
2022/08/16 02:34:45;;;;;;;;;;;;;;;;;;5054335;28;1348;-72
2022/08/16 02:37:12;;;;;;;;;;;;;;;;;;5054483;28;1407;-72
2022/08/16 02:39:39;;;;;;;;;;;;;;;;;;5054262;28;1592;-72
2022/08/16 02:42:05;;;;;;;;;;;;;;;;;;5054030;28;1186;-72
2022/08/16 02:44:31;;;;;;;;;;;;;;;;;;5054380;28;1306;-72
2022/08/16 02:46:58;;;;;;;;;;;;;;;;;;5072631;28;2282;-72
2022/08/16 02:49:26;;;;;;;;;;;;;;;;;;5074306;28;1967;-72
2022/08/16 02:51:54;;;;;;;;;;;;;;;;;;5091905;28;811;-72
2022/08/16 02:54:20;;;;;;;;;;;;;;;;;;5073948;28;1431;-72
2022/08/16 02:56:48;;;;;;;;;;;;;;;;;;5074082;28;2332;-72
2022/08/16 02:59:16;;;;;;;;;;;;;;;;;;5074039;28;1179;-72
2022/08/16 03:01:43;;;;;;;;;;;;;;;;;;5073641;28;1238;-71
2022/08/16 03:04:17;;;;;;;;;;;;;;;;;;5074002;28;1405;-72
2022/08/16 03:06:44;;;;;;;;;;;;;;;;;;5073979;28;1210;-72
2022/08/16 03:09:21;;;;;;;;;;;;;;;;;;5073886;28;1973;-72
2022/08/16 03:11:52;;;;;;;;;;;;;;;;;;5073674;28;1315;-72
2022/08/16 03:14:18;;;;;;;;;;;;;;;;;;5073935;28;1678;-72
2022/08/16 03:16:46;;;;;;;;;;;;;;;;;;5073394;28;1349;-71
2022/08/16 03:19:12;;;;;;;;;;;;;;;;;;5073887;28;1385;-72
2022/08/16 03:21:38;;;;;;;;;;;;;;;;;;5073248;28;1389;-72
2022/08/16 03:24:06;;;;;;;;;;;;;;;;;;5073359;28;1434;-71
2022/08/16 03:26:34;;;;;;;;;;;;;;;;;;5091414;28;857;-72
2022/08/16 03:29:01;;;;;;;;;;;;;;;;;;5073594;28;1973;-71
2022/08/16 03:31:27;;;;;;;;;;;;;;;;;;5073099;28;1563;-72
2022/08/16 03:33:54;;;;;;;;;;;;;;;;;;5073299;28;1334;-72
2022/08/16 03:36:21;;;;;;;;;;;;;;;;;;5062081;28;1756;-71
2022/08/16 03:38:52;;;;;;;;;;;;;;;;;;5058892;28;1731;-72
2022/08/16 03:41:19;;;;;;;;;;;;;;;;;;5069001;28;1307;-72
2022/08/16 03:43:46;;;;;;;;;;;;;;;;;;5070758;28;1593;-72
2022/08/16 03:46:15;;;;;;;;;;;;;;;;;;5092070;28;1328;-72
2022/08/16 03:48:41;;;;;;;;;;;;;;;;;;5111595;28;1973;-72
2022/08/16 03:51:14;;;;;;;;;;;;;;;;;;5081632;28;2031;-72
2022/08/16 03:53:46;;;;;;;;;;;;;;;;;;5070605;28;1414;-71
2022/08/16 03:56:13;;;;;;;;;;;;;;;;;;5091263;28;1303;-73
2022/08/16 03:58:39;;;;;;;;;;;;;;;;;;5112680;28;849;-72
2022/08/16 04:01:08;;;;;;;;;;;;;;;;;;5079068;28;1470;-71
2022/08/16 04:03:34;;;;;;;;;;;;;;;;;;5086495;28;1417;-72
2022/08/16 04:06:01;;;;;;;;;;;;;;;;;;5093211;28;1193;-73
2022/08/16 04:08:30;;;;;;;;;;;;;;;;;;5080641;28;1918;-73
2022/08/16 04:10:57;;;;;;;;;;;;;;;;;;5081140;28;1291;-73
2022/08/16 04:13:24;;;;;;;;;;;;;;;;;;5092631;28;1406;-73
2022/08/16 04:15:51;;;;;;;;;;;;;;;;;;5092905;28;1249;-72
2022/08/16 04:18:22;;;;;;;;;;;;;;;;;;5093335;28;1391;-73
2022/08/16 04:20:50;;;;;;;;;;;;;;;;;;5073358;28;1452;-72
2022/08/16 04:23:19;;;;;;;;;;;;;;;;;;5096848;28;1450;-72
2022/08/16 04:25:48;;;;;;;;;;;;;;;;;;5098958;28;1244;-72
2022/08/16 04:28:14;;;;;;;;;;;;;;;;;;5090080;28;1396;-71
2022/08/16 04:30:40;;;;;;;;;;;;;;;;;;5082634;28;1918;-71
2022/08/16 04:33:07;;;;;;;;;;;;;;;;;;5061780;28;1184;-72
2022/08/16 04:35:36;;;;;;;;;;;;;;;;;;5060970;28;1367;-71
2022/08/16 04:38:03;;;;;;;;;;;;;;;;;;5060867;28;1247;-72
2022/08/16 04:40:34;;;;;;;;;;;;;;;;;;5060492;28;1458;-72
2022/08/16 04:43:02;;;;;;;;;;;;;;;;;;5060463;28;1336;-72
2022/08/16 04:45:30;;;;;;;;;;;;;;;;;;5063808;28;1379;-71
2022/08/16 04:47:58;;;;;;;;;;;;;;;;;;5064923;28;1332;-71
2022/08/16 04:50:27;;;;;;;;;;;;;;;;;;5066215;28;1971;-71
2022/08/16 04:53:13;;;;;;;;;;;;;;;;;;5094441;28;610;-72
2022/08/16 04:55:43;;;;;;;;;;;;;;;;;;5076549;28;1153;-72
2022/08/16 04:58:09;;;;;;;;;;;;;;;;;;5076477;28;937;-73
2022/08/16 05:00:36;;;;;;;;;;;;;;;;;;5076280;28;1202;-71
2022/08/16 05:03:11;;;;;;;;;;;;;;;;;;5075793;28;1315;-71
2022/08/16 05:05:47;;;;;;;;;;;;;;;;;;5076168;28;1675;-71
2022/08/16 05:08:19;;;;;;;;;;;;;;;;;;5075881;28;1505;-71
2022/08/16 05:10:50;;;;;;;;;;;;;;;;;;5075776;28;1975;-69
2022/08/16 05:13:17;;;;;;;;;;;;;;;;;;5075446;28;1495;-72
2022/08/16 05:15:45;;;;;;;;;;;;;;;;;;5076007;28;1339;-72
2022/08/16 05:18:12;;;;;;;;;;;;;;;;;;5075870;28;1516;-72
2022/08/16 05:20:45;;;;;;;;;;;;;;;;;;5055538;28;1183;-72
2022/08/16 05:23:12;;;;;;;;;;;;;;;;;;5055689;28;1379;-72
2022/08/16 05:25:40;;;;;;;;;;;;;;;;;;5055433;28;1562;-72
2022/08/16 05:28:09;;;;;;;;;;;;;;;;;;5063397;28;1315;-72
2022/08/16 05:30:36;;;;;;;;;;;;;;;;;;5063897;28;1971;-71
2022/08/16 05:33:07;;;;;;;;;;;;;;;;;;5065639;28;1344;-72
2022/08/16 05:35:33;;;;;;;;;;;;;;;;;;5063237;28;1368;-72
2022/08/16 05:38:08;;;;;;;;;;;;;;;;;;5063365;28;1311;-72
2022/08/16 05:40:36;;;;;;;;;;;;;;;;;;5065211;28;1428;-72
2022/08/16 05:43:03;;;;;;;;;;;;;;;;;;5063841;28;1395;-74
2022/08/16 05:45:31;;;;;;;;;;;;;;;;;;5063269;28;1528;-72
2022/08/16 05:48:00;;;;;;;;;;;;;;;;;;5064113;28;1463;-71
2022/08/16 05:50:31;;;;;;;;;;;;;;;;;;5071406;28;1915;-71
2022/08/16 05:52:58;;;;;;;;;;;;;;;;;;5074977;28;838;-72
2022/08/16 05:55:24;;;;;;;;;;;;;;;;;;5074970;28;1321;-73
2022/08/16 05:57:51;;;;;;;;;;;;;;;;;;5064897;28;1562;-72
2022/08/16 06:00:18;;;;;;;;;;;;;;;;;;5064429;28;1290;-73
2022/08/16 06:02:47;;;;;;;;;;;;;;;;;;5065053;28;1279;-71
2022/08/16 06:05:33;;;;;;;;;;;;;;;;;;5082286;28;1329;-74
2022/08/16 06:08:00;;;;;;;;;;;;;;;;;;5060216;28;1495;-73
2022/08/16 06:10:32;;;;;;;;;;;;;;;;;;5054406;28;1980;-73
2022/08/16 06:12:58;;;;;;;;;;;;;;;;;;5054443;28;1297;-74
2022/08/16 06:15:26;;;;;;;;;;;;;;;;;;5072573;28;1308;-73
2022/08/16 06:17:52;;;;;;;;;;;;;;;;;;5054584;28;1304;-73
2022/08/16 06:20:23;;;;;;;;;;;;;;;;;;5072038;28;803;-73
2022/08/16 06:22:49;;;;;;;;;;;;;;;;;;5054200;28;1335;-74
2022/08/16 06:25:16;;;;;;;;;;;;;;;;;;5065555;28;1527;-73
2022/08/16 06:27:42;;;;;;;;;;;;;;;;;;5074684;28;1453;-74
2022/08/16 06:30:11;;;;;;;;;;;;;;;;;;5074469;28;1902;-73
2022/08/16 06:32:40;;;;;;;;;;;;;;;;;;5074045;28;1478;-72
2022/08/16 06:35:07;;;;;;;;;;;;;;;;;;5074596;28;1335;-74
2022/08/16 06:37:35;;;;;;;;;;;;;;;;;;5074322;28;951;-73
2022/08/16 06:40:01;;;;;;;;;;;;;;;;;;5074600;28;1620;-74
2022/08/16 06:42:32;;;;;;;;;;;;;;;;;;5073787;28;1311;-74
2022/08/16 06:45:19;;;;;;;;;;;;;;;;;;5060057;28;1354;-74
2022/08/16 06:47:53;;;;;;;;;;;;;;;;;;5092409;28;801;-74
2022/08/16 06:50:20;;;;;;;;;;;;;;;;;;5070468;28;1982;-73
2022/08/16 06:52:47;;;;;;;;;;;;;;;;;;5076664;28;1642;-74
2022/08/16 06:55:15;;;;;;;;;;;;;;;;;;5056759;28;1430;-73
2022/08/16 06:57:47;;;;;;;;;;;;;;;;;;5070368;28;1434;-73
2022/08/16 07:00:15;;;;;;;;;;;;;;;;;;5073410;28;1439;-73
2022/08/16 07:02:52;;;;;;;;;;;;;;;;;;5072613;28;1336;-73
2022/08/16 07:05:20;;;;;;;;;;;;;;;;;;5072171;28;1385;-73
2022/08/16 07:08:22;;;;;;;;;;;;;;;;;;5078472;28;1308;-73
2022/08/16 07:10:48;;;;;;;;;;;;;;;;;;5065693;28;2021;-72
2022/08/16 07:13:16;;;;;;;;;;;;;;;;;;5052913;28;1602;-73
2022/08/16 07:15:42;;;;;;;;;;;;;;;;;;5052676;28;1528;-73
2022/08/16 07:18:09;;;;;;;;;;;;;;;;;;5052759;28;1387;-73
2022/08/16 07:20:38;;;;;;;;;;;;;;;;;;5051517;28;1646;-73
2022/08/16 07:23:05;;;;;;;;;;;;;;;;;;5051551;28;1500;-72
2022/08/16 07:25:38;;;;;;;;;;;;;;;;;;5051228;28;1332;-73
2022/08/16 07:28:06;;;;;;;;;;;;;;;;;;5051049;28;1311;-73
2022/08/16 07:30:37;;;;;;;;;;;;;;;;;;5057048;28;2472;-73
2022/08/16 07:33:04;;;;;;;;;;;;;;;;;;5069704;28;1443;-73
2022/08/16 07:35:31;;;;;;;;;;;;;;;;;;5071813;28;1431;-72
2022/08/16 07:37:59;;;;;;;;;;;;;;;;;;5072933;28;1239;-72
2022/08/16 07:40:31;;;;;;;;;;;;;;;;;;5072543;28;1291;-71
2022/08/16 07:42:58;;;;;;;;;;;;;;;;;;5072744;28;1525;-73
2022/08/16 07:45:24;;;;;;;;;;;;;;;;;;5070966;28;1538;-73
2022/08/16 07:47:52;;;;;;;;;;;;;;;;;;5068236;28;1383;-73
2022/08/16 07:50:20;;;;;;;;;;;;;;;;;;5091285;28;1975;-73
2022/08/16 07:52:47;;;;;;;;;;;;;;;;;;5071868;28;1297;-71
2022/08/16 07:55:16;;;;;;;;;;;;;;;;;;5072100;28;1331;-72
2022/08/16 07:57:43;;;;;;;;;;;;;;;;;;5072203;28;1560;-73
2022/08/16 08:00:11;;;;;;;;;;;;;;;;;;5071851;28;1172;-73
2022/08/16 08:02:41;;;;;;;;;;;;;;;;;;5089637;28;754;-73
2022/08/16 08:05:10;;;;;;;;;;;;;;;;;;5072418;28;1498;-72
2022/08/16 08:07:38;;;;;;;;;;;;;;;;;;5072408;28;1557;-73
2022/08/16 08:10:05;;;;;;;;;;;;;;;;;;5072469;28;1969;-73
2022/08/16 08:12:35;;;;;;;;;;;;;;;;;;5071470;28;1410;-73
2022/08/16 08:15:01;;;;;;;;;;;;;;;;;;5071631;28;1410;-73
2022/08/16 08:17:29;;;;;;;;;;;;;;;;;;5071266;28;1438;-72
2022/08/16 08:19:55;;;;;;;;;;;;;;;;;;5070561;28;1446;-71
2022/08/16 08:22:22;;;;;;;;;;;;;;;;;;5070403;28;924;-73
2022/08/16 08:24:51;;;;;;;;;;;;;;;;;;5090077;28;1289;-73
2022/08/16 08:27:18;;;;;;;;;;;;;;;;;;5071642;28;1350;-73
2022/08/16 08:29:45;;;;;;;;;;;;;;;;;;5071922;28;1975;-72
2022/08/16 08:32:14;;;;;;;;;;;;;;;;;;5071012;28;1385;-73
2022/08/16 08:34:40;;;;;;;;;;;;;;;;;;5063653;28;1492;-73
2022/08/16 08:37:07;;;;;;;;;;;;;;;;;;5052070;28;1238;-73
2022/08/16 08:39:38;;;;;;;;;;;;;;;;;;5069658;28;850;-72
2022/08/16 08:42:05;;;;;;;;;;;;;;;;;;5051729;28;1387;-73
2022/08/16 08:44:32;;;;;;;;;;;;;;;;;;5051267;28;1607;-72
2022/08/16 08:47:05;;;;;;;;;;;;;;;;;;5056177;28;1206;-73
2022/08/16 08:49:33;;;;;;;;;;;;;;;;;;5071211;28;1282;-73
2022/08/16 08:51:59;;;;;;;;;;;;;;;;;;5070152;28;1918;-73
2022/08/16 08:54:25;;;;;;;;;;;;;;;;;;5070358;28;1384;-73
2022/08/16 08:56:54;;;;;;;;;;;;;;;;;;5071080;28;1254;-73
2022/08/16 08:59:32;;;;;;;;;;;;;;;;;;5071752;28;1190;-73
2022/08/16 09:01:59;;;;;;;;;;;;;;;;;;5071087;28;1459;-73
2022/08/16 09:04:31;;;;;;;;;;;;;;;;;;5071428;28;1523;-73
2022/08/16 09:06:59;;;;;;;;;;;;;;;;;;5071921;28;1230;-72
2022/08/16 09:09:28;;;;;;;;;;;;;;;;;;5071448;28;1306;-72
2022/08/16 09:11:56;;;;;;;;;;;;;;;;;;5071327;28;1977;-73
2022/08/16 09:14:23;;;;;;;;;;;;;;;;;;5071321;28;1505;-72
2022/08/16 09:16:49;;;;;;;;;;;;;;;;;;5071748;28;1226;-73
2022/08/16 09:19:16;;;;;;;;;;;;;;;;;;5071829;28;1539;-73
2022/08/16 09:21:43;;;;;;;;;;;;;;;;;;5071250;28;1311;-71
2022/08/16 09:24:09;;;;;;;;;;;;;;;;;;5071303;28;1326;-72
2022/08/16 09:26:39;;;;;;;;;;;;;;;;;;5071767;28;1411;-73
2022/08/16 09:29:06;;;;;;;;;;;;;;;;;;5089540;28;798;-73
2022/08/16 09:31:32;;;;;;;;;;;;;;;;;;5072976;28;2347;-73
2022/08/16 09:34:00;;;;;;;;;;;;;;;;;;5092852;28;1410;-73
2022/08/16 09:36:28;;;;;;;;;;;;;;;;;;5093532;28;1091;-73
2022/08/16 09:38:56;;;;;;;;;;;;;;;;;;5093044;28;1020;-74
2022/08/16 09:41:22;;;;;;;;;;;;;;;;;;5092876;28;857;-73
2022/08/16 09:43:48;;;;;;;;;;;;;;;;;;5092589;28;1309;-73
2022/08/16 09:46:14;;;;;;;;;;;;;;;;;;5093011;28;1066;-74
2022/08/16 09:48:41;;;;;;;;;;;;;;;;;;5074350;28;1139;-74
2022/08/16 09:51:08;;;;;;;;;;;;;;;;;;5072523;28;1910;-73
2022/08/16 09:53:34;;;;;;;;;;;;;;;;;;5072798;28;2152;-74
2022/08/16 09:56:03;;;;;;;;;;;;;;;;;;5105120;28;1019;-73
2022/08/16 09:58:29;;;;;;;;;;;;;;;;;;5106172;28;1193;-73
2022/08/16 10:00:55;;;;;;;;;;;;;;;;;;5095419;28;1246;-73
2022/08/16 10:03:22;;;;;;;;;;;;;;;;;;5094190;28;1422;-74
2022/08/16 10:05:48;;;;;;;;;;;;;;;;;;5112921;28;944;-73
2022/08/16 10:08:16;;;;;;;;;;;;;;;;;;5113025;28;761;-75
2022/08/16 10:13:10;;;;;;;;;;;;;;;;;;5112967;28;1964;-74
2022/08/16 10:13:29;;;;;;;;;;;;;;;;;;5094027;28;1333;-74
2022/08/16 10:15:58;;;;;;;;;;;;;;;;;;5112540;28;1090;-74
2022/08/16 10:18:26;;;;;;;;;;;;;;;;;;5112485;28;1189;-73
2022/08/16 10:20:52;;;;;;;;;;;;;;;;;;5112626;28;830;-74
2022/08/16 10:23:19;;;;;;;;;;;;;;;;;;5094146;28;1288;-74
2022/08/16 10:25:45;;;;;;;;;;;;;;;;;;5112468;28;964;-74
2022/08/16 10:28:12;;;;;;;;;;;;;;;;;;5112618;28;1258;-74
2022/08/16 10:30:41;;;;;;;;;;;;;;;;;;5093258;28;1913;-74
2022/08/16 10:33:07;;;;;;;;;;;;;;;;;;5111943;28;1078;-75
2022/08/16 10:35:33;;;;;;;;;;;;;;;;;;5107221;28;1494;-75
2022/08/16 10:38:00;;;;;;;;;;;;;;;;;;5072202;28;1487;-73
2022/08/16 10:40:26;;;;;;;;;;;;;;;;;;5071995;28;794;-75
2022/08/16 10:42:53;;;;;;;;;;;;;;;;;;5055753;28;1292;-75
2022/08/16 10:45:19;;;;;;;;;;;;;;;;;;5081688;28;1393;-75
2022/08/16 10:47:48;;;;;;;;;;;;;;;;;;5082128;28;1263;-74
2022/08/16 10:50:14;;;;;;;;;;;;;;;;;;5082332;28;1207;-74
2022/08/16 10:52:40;;;;;;;;;;;;;;;;;;5080595;28;1967;-75
2022/08/16 10:55:11;;;;;;;;;;;;;;;;;;5076102;28;1443;-74
2022/08/16 10:57:38;;;;;;;;;;;;;;;;;;5071405;28;1083;-74
2022/08/16 11:00:06;;;;;;;;;;;;;;;;;;5071508;28;991;-74
2022/08/16 11:02:32;;;;;;;;;;;;;;;;;;5071061;28;822;-75
2022/08/16 11:05:00;;;;;;;;;;;;;;;;;;5070947;28;1399;-75
2022/08/16 11:07:26;;;;;;;;;;;;;;;;;;5071376;28;1107;-75
2022/08/16 11:09:52;;;;;;;;;;;;;;;;;;5071135;28;996;-75
2022/08/16 11:12:18;;;;;;;;;;;;;;;;;;5070829;28;1922;-74
2022/08/16 11:14:45;;;;;;;;;;;;;;;;;;5078941;28;1381;-74
2022/08/16 11:17:12;;;;;;;;;;;;;;;;;;5080988;28;1298;-75
2022/08/16 11:19:40;;;;;;;;;;;;;;;;;;5081839;28;1310;-75
2022/08/16 11:22:08;;;;;;;;;;;;;;;;;;5090223;28;1460;-74
2022/08/16 11:24:38;;;;;;;;;;;;;;;;;;5090943;28;1352;-74
2022/08/16 11:27:05;;;;;;;;;;;;;;;;;;5057255;28;1147;-74
2022/08/16 11:29:31;;;;;;;;;;;;;;;;;;5052962;28;1107;-74
2022/08/16 11:31:57;;;;;;;;;;;;;;;;;;5070476;28;1979;-74
2022/08/16 11:34:23;;;;;;;;;;;;;;;;;;5070826;28;1291;-74
2022/08/16 11:36:51;;;;;;;;;;;;;;;;;;5070808;28;814;-74
2022/08/16 11:39:18;;;;;;;;;;;;;;;;;;5075808;28;1151;-74
2022/08/16 11:41:45;;;;;;;;;;;;;;;;;;5078964;28;1294;-75
2022/08/16 11:44:11;;;;;;;;;;;;;;;;;;5056577;28;1348;-74
2022/08/16 11:46:37;;;;;;;;;;;;;;;;;;5071480;28;1155;-75
2022/08/16 11:49:03;;;;;;;;;;;;;;;;;;5090967;28;807;-74
2022/08/16 11:51:30;;;;;;;;;;;;;;;;;;5090496;28;1977;-74
2022/08/16 11:53:56;;;;;;;;;;;;;;;;;;5065901;28;1634;-74
2022/08/16 11:56:24;;;;;;;;;;;;;;;;;;5070906;28;921;-75
2022/08/16 11:58:50;;;;;;;;;;;;;;;;;;5090531;28;893;-74
2022/08/16 12:01:16;;;;;;;;;;;;;;;;;;5063502;28;1274;-74
2022/08/16 12:03:43;;;;;;;;;;;;;;;;;;5074850;28;1416;-75
2022/08/16 12:06:11;;;;;;;;;;;;;;;;;;5075446;28;1057;-75
2022/08/16 12:08:37;;;;;;;;;;;;;;;;;;5081596;28;1393;-74
2022/08/16 12:11:04;;;;;;;;;;;;;;;;;;5089269;28;1906;-74
2022/08/16 12:13:32;;;;;;;;;;;;;;;;;;5090002;28;1463;-74
2022/08/16 12:15:58;;;;;;;;;;;;;;;;;;5090349;28;956;-74
2022/08/16 12:18:24;;;;;;;;;;;;;;;;;;5091619;28;1059;-74
2022/08/16 12:20:51;;;;;;;;;;;;;;;;;;5072583;28;1384;-75
2022/08/16 12:23:17;;;;;;;;;;;;;;;;;;5089787;28;1102;-75
2022/08/16 12:25:43;;;;;;;;;;;;;;;;;;5089562;28;1352;-74
2022/08/16 12:28:09;;;;;;;;;;;;;;;;;;5071984;28;1337;-75
2022/08/16 12:30:38;;;;;;;;;;;;;;;;;;5072215;28;1060;-75
2022/08/16 12:33:05;;;;;;;;;;;;;;;;;;5087689;28;1977;-75
2022/08/16 12:35:31;;;;;;;;;;;;;;;;;;5082749;28;1546;-75
2022/08/16 12:37:58;;;;;;;;;;;;;;;;;;5089973;28;1419;-74
2022/08/16 12:40:31;;;;;;;;;;;;;;;;;;5095990;28;1196;-75
2022/08/16 12:42:58;;;;;;;;;;;;;;;;;;5106672;28;1408;-74
2022/08/16 12:45:24;;;;;;;;;;;;;;;;;;5100099;28;1336;-74
2022/08/16 12:50:36;;;;;;;;;;;;;;;;;;5092526;28;1193;-74
2022/08/16 12:53:02;;;;;;;;;;;;;;;;;;5089501;28;1918;-74
2022/08/16 12:55:29;;;;;;;;;;;;;;;;;;5089800;28;1366;-75
2022/08/16 12:57:56;;;;;;;;;;;;;;;;;;5086925;28;1412;-75
2022/08/16 13:00:22;;;;;;;;;;;;;;;;;;5101986;28;1212;-75
2022/08/16 13:02:49;;;;;;;;;;;;;;;;;;5109835;28;1153;-75
2022/08/16 13:05:16;;;;;;;;;;;;;;;;;;5105532;28;1403;-75
2022/08/16 13:07:43;;;;;;;;;;;;;;;;;;5105385;28;1664;-75
2022/08/16 13:10:12;;;;;;;;;;;;;;;;;;5095592;28;1245;-75
2022/08/16 13:12:39;;;;;;;;;;;;;;;;;;5109336;28;1909;-76
2022/08/16 13:15:07;;;;;;;;;;;;;;;;;;5102994;28;1380;-76
2022/08/16 13:17:33;;;;;;;;;;;;;;;;;;5105702;28;1580;-75
2022/08/16 13:20:00;;;;;;;;;;;;;;;;;;5077184;28;1558;-75
2022/08/16 13:22:27;;;;;;;;;;;;;;;;;;5103126;28;1310;-75
2022/08/16 13:24:54;;;;;;;;;;;;;;;;;;5086535;28;1455;-74
2022/08/16 13:27:20;;;;;;;;;;;;;;;;;;5113582;28;1138;-74
2022/08/16 13:29:46;;;;;;;;;;;;;;;;;;5110021;28;1459;-75
2022/08/16 13:32:12;;;;;;;;;;;;;;;;;;5086194;28;1969;-74
2022/08/16 13:34:39;;;;;;;;;;;;;;;;;;5113655;28;1316;-74
2022/08/16 13:37:05;;;;;;;;;;;;;;;;;;5090205;28;946;-74
2022/08/16 13:39:33;;;;;;;;;;;;;;;;;;5091791;28;1336;-75
2022/08/16 13:42:03;;;;;;;;;;;;;;;;;;5101729;28;1130;-75
2022/08/16 13:44:29;;;;;;;;;;;;;;;;;;5113417;28;1337;-75
2022/08/16 13:46:56;;;;;;;;;;;;;;;;;;5087608;28;1332;-74
2022/08/16 13:49:22;;;;;;;;;;;;;;;;;;5072285;28;1116;-75
2022/08/16 13:51:48;;;;;;;;;;;;;;;;;;5090196;28;1963;-75
2022/08/16 13:54:15;;;;;;;;;;;;;;;;;;5101348;28;1366;-75
2022/08/16 13:56:42;;;;;;;;;;;;;;;;;;5094659;28;1429;-75
2022/08/16 13:59:10;;;;;;;;;;;;;;;;;;5107962;28;1488;-76
2022/08/16 14:01:36;;;;;;;;;;;;;;;;;;5071469;28;1432;-75
2022/08/16 14:04:03;;;;;;;;;;;;;;;;;;5092461;28;1416;-75
2022/08/16 14:06:30;;;;;;;;;;;;;;;;;;5092594;28;1107;-75
2022/08/16 14:08:56;;;;;;;;;;;;;;;;;;5088891;28;1420;-75
2022/08/16 14:11:22;;;;;;;;;;;;;;;;;;5086022;28;1154;-75
2022/08/16 14:13:50;;;;;;;;;;;;;;;;;;5112502;28;2027;-75
2022/08/16 14:16:16;;;;;;;;;;;;;;;;;;5100992;28;1419;-75
2022/08/16 14:18:42;;;;;;;;;;;;;;;;;;5080224;28;1297;-75
2022/08/16 14:21:08;;;;;;;;;;;;;;;;;;5092205;28;936;-75
2022/08/16 14:23:34;;;;;;;;;;;;;;;;;;5091860;28;1391;-75
2022/08/16 14:26:01;;;;;;;;;;;;;;;;;;5082789;28;1502;-75
2022/08/16 14:28:27;;;;;;;;;;;;;;;;;;5063387;28;1412;-75
2022/08/16 14:30:55;;;;;;;;;;;;;;;;;;5096639;28;1126;-75
2022/08/16 14:33:21;;;;;;;;;;;;;;;;;;5068619;28;1895;-76
2022/08/16 14:35:48;;;;;;;;;;;;;;;;;;5087835;28;1352;-75
2022/08/16 14:38:16;;;;;;;;;;;;;;;;;;5099669;28;1150;-75
2022/08/16 14:40:42;;;;;;;;;;;;;;;;;;5092102;28;1103;-76
2022/08/16 14:43:08;;;;;;;;;;;;;;;;;;5076521;28;1416;-76
2022/08/16 14:45:35;;;;;;;;;;;;;;;;;;5111845;28;1309;-75
2022/08/16 14:48:03;;;;;;;;;;;;;;;;;;5084083;28;1391;-75
2022/08/16 14:50:29;;;;;;;;;;;;;;;;;;5073978;28;1284;-76
2022/08/16 14:52:56;;;;;;;;;;;;;;;;;;5057900;28;1918;-75
2022/08/16 14:55:23;;;;;;;;;;;;;;;;;;5076249;28;1436;-75
2022/08/16 14:57:49;;;;;;;;;;;;;;;;;;5077913;28;1214;-75
2022/08/16 15:00:16;;;;;;;;;;;;;;;;;;5091514;28;1150;-76
2022/08/16 15:02:50;;;;;;;;;;;;;;;;;;5091211;28;1044;-76
2022/08/16 15:05:17;;;;;;;;;;;;;;;;;;5092953;28;1411;-76
2022/08/16 15:07:44;;;;;;;;;;;;;;;;;;5085434;28;1331;-76
2022/08/16 15:10:10;;;;;;;;;;;;;;;;;;5111813;28;1059;-75
2022/08/16 15:12:36;;;;;;;;;;;;;;;;;;5072756;28;1923;-76
2022/08/16 15:15:05;;;;;;;;;;;;;;;;;;5088196;28;1542;-75
2022/08/16 15:17:31;;;;;;;;;;;;;;;;;;5088341;28;1463;-75
2022/08/16 15:19:57;;;;;;;;;;;;;;;;;;5088209;28;1298;-75
2022/08/16 15:22:28;;;;;;;;;;;;;;;;;;5100910;28;1434;-75
2022/08/16 15:24:57;;;;;;;;;;;;;;;;;;5100352;28;1430;-75
2022/08/16 15:27:24;;;;;;;;;;;;;;;;;;5094169;28;1185;-75
2022/08/16 15:29:51;;;;;;;;;;;;;;;;;;5091860;28;1402;-75
2022/08/16 15:32:17;;;;;;;;;;;;;;;;;;5094585;28;1946;-75
2022/08/16 15:34:44;;;;;;;;;;;;;;;;;;5078921;28;1598;-75
2022/08/16 15:37:10;;;;;;;;;;;;;;;;;;5092257;28;1145;-76
2022/08/16 15:39:38;;;;;;;;;;;;;;;;;;5090852;28;941;-76
2022/08/16 15:42:05;;;;;;;;;;;;;;;;;;5089485;28;1079;-76
2022/08/16 15:44:35;;;;;;;;;;;;;;;;;;5090554;28;1422;-75
2022/08/16 15:47:01;;;;;;;;;;;;;;;;;;5099115;28;1379;-76
2022/08/16 15:49:28;;;;;;;;;;;;;;;;;;5102683;28;1177;-76
2022/08/16 15:51:54;;;;;;;;;;;;;;;;;;5096477;28;1370;-77
2022/08/16 15:54:20;;;;;;;;;;;;;;;;;;5085719;28;1951;-76
2022/08/16 15:56:50;;;;;;;;;;;;;;;;;;5066556;28;1373;-76
2022/08/16 15:59:16;;;;;;;;;;;;;;;;;;5099084;28;1311;-76
2022/08/16 16:01:43;;;;;;;;;;;;;;;;;;5085560;28;1679;-76
2022/08/16 16:04:13;;;;;;;;;;;;;;;;;;5111384;28;1352;-76
2022/08/16 16:06:40;;;;;;;;;;;;;;;;;;5111209;28;691;-77
2022/08/16 16:09:06;;;;;;;;;;;;;;;;;;5111248;28;1067;-77
2022/08/16 16:11:32;;;;;;;;;;;;;;;;;;5111743;28;876;-77
2022/08/16 16:14:01;;;;;;;;;;;;;;;;;;5093235;28;1930;-77
2022/08/16 16:16:27;;;;;;;;;;;;;;;;;;5111700;28;725;-77
2022/08/16 16:18:54;;;;;;;;;;;;;;;;;;5093203;28;1229;-77
2022/08/16 16:21:20;;;;;;;;;;;;;;;;;;5093235;28;1138;-77
2022/08/16 16:23:46;;;;;;;;;;;;;;;;;;5111815;28;1297;-77
2022/08/16 16:26:13;;;;;;;;;;;;;;;;;;5112030;28;995;-76
2022/08/16 16:28:39;;;;;;;;;;;;;;;;;;5075030;28;1513;-77
2022/08/16 16:31:07;;;;;;;;;;;;;;;;;;5071010;28;1122;-77
2022/08/16 16:33:37;;;;;;;;;;;;;;;;;;5070700;28;1916;-77
2022/08/16 16:36:03;;;;;;;;;;;;;;;;;;5071140;28;983;-77
2022/08/16 16:38:30;;;;;;;;;;;;;;;;;;5071105;28;1052;-76
2022/08/16 16:40:56;;;;;;;;;;;;;;;;;;5072190;28;858;-77
2022/08/16 16:43:23;;;;;;;;;;;;;;;;;;5075025;28;1028;-76
2022/08/16 16:45:49;;;;;;;;;;;;;;;;;;5074727;28;1103;-77
2022/08/16 16:48:17;;;;;;;;;;;;;;;;;;5075212;28;1001;-77
2022/08/16 16:50:43;;;;;;;;;;;;;;;;;;5057251;28;1115;-77
2022/08/16 16:53:10;;;;;;;;;;;;;;;;;;5074119;28;1918;-77
2022/08/16 16:55:37;;;;;;;;;;;;;;;;;;5058772;28;1531;-77
2022/08/16 17:00:47;;;;;;;;;;;;;;;;;;5096706;28;1381;-77
2022/08/16 17:03:14;;;;;;;;;;;;;;;;;;5109327;28;1318;-77
2022/08/16 17:05:41;;;;;;;;;;;;;;;;;;5105865;28;1443;-76
2022/08/16 17:08:07;;;;;;;;;;;;;;;;;;5098654;28;1350;-76
2022/08/16 17:10:34;;;;;;;;;;;;;;;;;;5106770;28;1141;-76
2022/08/16 17:13:00;;;;;;;;;;;;;;;;;;5114197;28;1910;-76